sensor_id;sensor_type;location;lat;lon;timestamp;P1;durP1;ratioP1;P2;durP2;ratioP2
79005;SDS011;69202;45.498;-73.582;2023-06-10T00:01:53;4.28;;;2.00;;
79005;SDS011;69202;45.498;-73.582;2023-06-10T00:04:23;3.85;;;1.60;;
79005;SDS011;69202;45.498;-73.582;2023-06-10T00:06:49;5.00;;;2.10;;
79005;SDS011;69202;45.498;-73.582;2023-06-10T00:09:15;4.95;;;1.83;;
79005;SDS011;69202;45.498;-73.582;2023-06-10T00:11:41;3.50;;;2.10;;
79005;SDS011;69202;45.498;-73.582;2023-06-10T00:14:08;7.00;;;2.05;;
79005;SDS011;69202;45.498;-73.582;2023-06-10T00:16:34;6.80;;;2.33;;
79005;SDS011;69202;45.498;-73.582;2023-06-10T00:19:02;7.07;;;2.35;;
79005;SDS011;69202;45.498;-73.582;2023-06-10T00:21:29;4.03;;;2.10;;
79005;SDS011;69202;45.498;-73.582;2023-06-10T00:24:05;3.08;;;2.08;;
79005;SDS011;69202;45.498;-73.582;2023-06-10T00:26:37;4.87;;;2.57;;
79005;SDS011;69202;45.498;-73.582;2023-06-10T00:29:04;11.02;;;6.88;;
79005;SDS011;69202;45.498;-73.582;2023-06-10T00:31:30;15.68;;;8.70;;
79005;SDS011;69202;45.498;-73.582;2023-06-10T00:33:56;18.63;;;9.32;;
79005;SDS011;69202;45.498;-73.582;2023-06-10T00:36:24;24.77;;;13.95;;
79005;SDS011;69202;45.498;-73.582;2023-06-10T00:38:50;29.95;;;18.20;;
79005;SDS011;69202;45.498;-73.582;2023-06-10T00:41:15;19.00;;;11.27;;
79005;SDS011;69202;45.498;-73.582;2023-06-10T00:43:41;5.72;;;3.33;;
79005;SDS011;69202;45.498;-73.582;2023-06-10T00:46:07;5.82;;;3.03;;
79005;SDS011;69202;45.498;-73.582;2023-06-10T00:48:33;5.53;;;2.80;;
79005;SDS011;69202;45.498;-73.582;2023-06-10T00:50:59;10.73;;;3.30;;
79005;SDS011;69202;45.498;-73.582;2023-06-10T00:53:26;6.82;;;3.13;;
79005;SDS011;69202;45.498;-73.582;2023-06-10T00:55:53;8.40;;;3.25;;
79005;SDS011;69202;45.498;-73.582;2023-06-10T00:58:19;7.90;;;3.22;;
79005;SDS011;69202;45.498;-73.582;2023-06-10T01:00:45;7.15;;;3.00;;
79005;SDS011;69202;45.498;-73.582;2023-06-10T01:03:11;4.80;;;2.65;;
79005;SDS011;69202;45.498;-73.582;2023-06-10T01:05:38;5.07;;;2.70;;
79005;SDS011;69202;45.498;-73.582;2023-06-10T01:10:54;3.40;;;2.33;;
79005;SDS011;69202;45.498;-73.582;2023-06-10T01:13:25;5.28;;;2.70;;
79005;SDS011;69202;45.498;-73.582;2023-06-10T01:15:57;4.43;;;2.50;;
79005;SDS011;69202;45.498;-73.582;2023-06-10T01:18:29;3.28;;;2.20;;
79005;SDS011;69202;45.498;-73.582;2023-06-10T01:20:56;3.70;;;2.22;;
79005;SDS011;69202;45.498;-73.582;2023-06-10T01:23:22;3.45;;;2.40;;
79005;SDS011;69202;45.498;-73.582;2023-06-10T01:26:09;4.90;;;2.10;;
79005;SDS011;69202;45.498;-73.582;2023-06-10T01:31:25;7.82;;;2.65;;
79005;SDS011;69202;45.498;-73.582;2023-06-10T01:34:02;5.85;;;2.35;;
79005;SDS011;69202;45.498;-73.582;2023-06-10T01:36:34;7.07;;;2.35;;
79005;SDS011;69202;45.498;-73.582;2023-06-10T01:39:01;4.15;;;2.15;;
79005;SDS011;69202;45.498;-73.582;2023-06-10T01:41:29;5.95;;;2.38;;
79005;SDS011;69202;45.498;-73.582;2023-06-10T01:43:56;8.65;;;2.45;;
79005;SDS011;69202;45.498;-73.582;2023-06-10T01:46:22;6.38;;;2.70;;
79005;SDS011;69202;45.498;-73.582;2023-06-10T01:48:48;8.27;;;3.25;;
79005;SDS011;69202;45.498;-73.582;2023-06-10T01:51:14;7.90;;;2.45;;
79005;SDS011;69202;45.498;-73.582;2023-06-10T01:53:40;8.30;;;2.40;;
79005;SDS011;69202;45.498;-73.582;2023-06-10T01:56:06;7.18;;;2.60;;
79005;SDS011;69202;45.498;-73.582;2023-06-10T01:58:32;7.22;;;2.30;;
79005;SDS011;69202;45.498;-73.582;2023-06-10T02:00:57;8.27;;;2.50;;
79005;SDS011;69202;45.498;-73.582;2023-06-10T02:03:23;8.75;;;2.53;;
79005;SDS011;69202;45.498;-73.582;2023-06-10T02:05:49;7.75;;;2.65;;
79005;SDS011;69202;45.498;-73.582;2023-06-10T02:08:15;8.30;;;2.90;;
79005;SDS011;69202;45.498;-73.582;2023-06-10T02:10:41;7.57;;;2.38;;
79005;SDS011;69202;45.498;-73.582;2023-06-10T02:13:07;8.25;;;2.28;;
79005;SDS011;69202;45.498;-73.582;2023-06-10T02:15:33;8.50;;;2.60;;
79005;SDS011;69202;45.498;-73.582;2023-06-10T02:17:59;8.82;;;2.70;;
79005;SDS011;69202;45.498;-73.582;2023-06-10T02:20:25;9.27;;;2.78;;
79005;SDS011;69202;45.498;-73.582;2023-06-10T02:22:51;9.48;;;2.88;;
79005;SDS011;69202;45.498;-73.582;2023-06-10T02:25:18;6.50;;;2.60;;
79005;SDS011;69202;45.498;-73.582;2023-06-10T02:27:44;8.75;;;2.63;;
79005;SDS011;69202;45.498;-73.582;2023-06-10T02:30:10;7.38;;;2.60;;
79005;SDS011;69202;45.498;-73.582;2023-06-10T02:32:36;5.95;;;2.40;;
79005;SDS011;69202;45.498;-73.582;2023-06-10T02:35:02;12.15;;;2.58;;
79005;SDS011;69202;45.498;-73.582;2023-06-10T02:37:28;11.00;;;2.58;;
79005;SDS011;69202;45.498;-73.582;2023-06-10T02:39:54;7.70;;;3.05;;
79005;SDS011;69202;45.498;-73.582;2023-06-10T02:42:20;6.78;;;2.80;;
79005;SDS011;69202;45.498;-73.582;2023-06-10T02:44:45;5.05;;;2.83;;
79005;SDS011;69202;45.498;-73.582;2023-06-10T02:47:11;5.63;;;2.75;;
79005;SDS011;69202;45.498;-73.582;2023-06-10T02:49:37;8.90;;;2.47;;
79005;SDS011;69202;45.498;-73.582;2023-06-10T02:52:03;3.03;;;2.03;;
79005;SDS011;69202;45.498;-73.582;2023-06-10T02:54:29;5.43;;;2.72;;
79005;SDS011;69202;45.498;-73.582;2023-06-10T02:56:55;6.65;;;2.17;;
79005;SDS011;69202;45.498;-73.582;2023-06-10T02:59:21;5.38;;;2.00;;
79005;SDS011;69202;45.498;-73.582;2023-06-10T03:01:47;11.20;;;2.53;;
79005;SDS011;69202;45.498;-73.582;2023-06-10T03:04:13;5.85;;;2.08;;
79005;SDS011;69202;45.498;-73.582;2023-06-10T03:06:39;6.43;;;2.40;;
79005;SDS011;69202;45.498;-73.582;2023-06-10T03:09:10;6.28;;;2.45;;
79005;SDS011;69202;45.498;-73.582;2023-06-10T03:11:36;6.28;;;2.20;;
79005;SDS011;69202;45.498;-73.582;2023-06-10T03:14:02;4.13;;;2.33;;
79005;SDS011;69202;45.498;-73.582;2023-06-10T03:16:28;3.00;;;1.90;;
79005;SDS011;69202;45.498;-73.582;2023-06-10T03:18:57;7.65;;;2.55;;
79005;SDS011;69202;45.498;-73.582;2023-06-10T03:21:23;6.88;;;1.95;;
79005;SDS011;69202;45.498;-73.582;2023-06-10T03:23:49;4.70;;;2.17;;
79005;SDS011;69202;45.498;-73.582;2023-06-10T03:26:15;5.25;;;1.92;;
79005;SDS011;69202;45.498;-73.582;2023-06-10T03:28:41;3.85;;;1.60;;
79005;SDS011;69202;45.498;-73.582;2023-06-10T03:31:07;3.13;;;1.60;;
79005;SDS011;69202;45.498;-73.582;2023-06-10T03:33:33;2.05;;;1.30;;
79005;SDS011;69202;45.498;-73.582;2023-06-10T03:35:59;1.13;;;1.00;;
79005;SDS011;69202;45.498;-73.582;2023-06-10T03:38:25;2.28;;;1.30;;
79005;SDS011;69202;45.498;-73.582;2023-06-10T03:40:51;2.05;;;1.10;;
79005;SDS011;69202;45.498;-73.582;2023-06-10T03:43:17;2.13;;;1.17;;
79005;SDS011;69202;45.498;-73.582;2023-06-10T03:45:42;1.70;;;1.10;;
79005;SDS011;69202;45.498;-73.582;2023-06-10T03:48:08;2.65;;;1.30;;
79005;SDS011;69202;45.498;-73.582;2023-06-10T03:50:35;1.45;;;1.13;;
79005;SDS011;69202;45.498;-73.582;2023-06-10T03:53:01;2.70;;;1.00;;
79005;SDS011;69202;45.498;-73.582;2023-06-10T03:55:27;2.47;;;1.20;;
79005;SDS011;69202;45.498;-73.582;2023-06-10T03:57:53;1.75;;;1.20;;
79005;SDS011;69202;45.498;-73.582;2023-06-10T04:00:19;2.33;;;1.50;;
79005;SDS011;69202;45.498;-73.582;2023-06-10T04:02:47;4.40;;;1.20;;
79005;SDS011;69202;45.498;-73.582;2023-06-10T04:05:17;2.60;;;1.13;;
79005;SDS011;69202;45.498;-73.582;2023-06-10T04:07:47;2.63;;;1.63;;
79005;SDS011;69202;45.498;-73.582;2023-06-10T04:10:13;4.70;;;1.70;;
79005;SDS011;69202;45.498;-73.582;2023-06-10T04:12:40;3.38;;;1.55;;
79005;SDS011;69202;45.498;-73.582;2023-06-10T04:15:07;2.33;;;1.40;;
79005;SDS011;69202;45.498;-73.582;2023-06-10T04:17:33;3.75;;;2.03;;
79005;SDS011;69202;45.498;-73.582;2023-06-10T04:19:59;3.28;;;1.70;;
79005;SDS011;69202;45.498;-73.582;2023-06-10T04:22:26;4.25;;;1.48;;
79005;SDS011;69202;45.498;-73.582;2023-06-10T04:24:52;4.20;;;1.70;;
79005;SDS011;69202;45.498;-73.582;2023-06-10T04:27:18;3.42;;;1.60;;
79005;SDS011;69202;45.498;-73.582;2023-06-10T04:29:44;7.15;;;1.88;;
79005;SDS011;69202;45.498;-73.582;2023-06-10T04:32:10;2.67;;;1.70;;
79005;SDS011;69202;45.498;-73.582;2023-06-10T04:34:36;2.35;;;1.55;;
79005;SDS011;69202;45.498;-73.582;2023-06-10T04:37:05;3.53;;;1.70;;
79005;SDS011;69202;45.498;-73.582;2023-06-10T04:39:31;3.38;;;1.73;;
79005;SDS011;69202;45.498;-73.582;2023-06-10T04:41:59;4.05;;;1.70;;
79005;SDS011;69202;45.498;-73.582;2023-06-10T04:44:25;4.90;;;1.42;;
79005;SDS011;69202;45.498;-73.582;2023-06-10T04:46:51;3.00;;;1.63;;
79005;SDS011;69202;45.498;-73.582;2023-06-10T04:49:17;3.15;;;1.40;;
79005;SDS011;69202;45.498;-73.582;2023-06-10T04:51:43;3.20;;;1.52;;
79005;SDS011;69202;45.498;-73.582;2023-06-10T04:54:09;1.63;;;1.50;;
79005;SDS011;69202;45.498;-73.582;2023-06-10T04:56:34;1.63;;;1.30;;
79005;SDS011;69202;45.498;-73.582;2023-06-10T04:59:01;3.67;;;1.60;;
79005;SDS011;69202;45.498;-73.582;2023-06-10T05:01:27;3.80;;;2.00;;
79005;SDS011;69202;45.498;-73.582;2023-06-10T05:03:54;4.03;;;1.98;;
79005;SDS011;69202;45.498;-73.582;2023-06-10T05:06:20;2.45;;;1.83;;
79005;SDS011;69202;45.498;-73.582;2023-06-10T05:08:46;3.47;;;2.10;;
79005;SDS011;69202;45.498;-73.582;2023-06-10T05:11:12;2.08;;;1.67;;
79005;SDS011;69202;45.498;-73.582;2023-06-10T05:13:38;2.70;;;2.17;;
79005;SDS011;69202;45.498;-73.582;2023-06-10T05:16:06;3.67;;;2.10;;
79005;SDS011;69202;45.498;-73.582;2023-06-10T05:18:32;2.35;;;2.15;;
79005;SDS011;69202;45.498;-73.582;2023-06-10T05:20:58;3.42;;;1.98;;
79005;SDS011;69202;45.498;-73.582;2023-06-10T05:23:24;3.22;;;2.22;;
79005;SDS011;69202;45.498;-73.582;2023-06-10T05:25:50;3.63;;;2.10;;
79005;SDS011;69202;45.498;-73.582;2023-06-10T05:28:16;2.88;;;2.20;;
79005;SDS011;69202;45.498;-73.582;2023-06-10T05:30:43;5.88;;;2.20;;
79005;SDS011;69202;45.498;-73.582;2023-06-10T05:33:09;3.92;;;2.38;;
79005;SDS011;69202;45.498;-73.582;2023-06-10T05:35:35;5.50;;;2.70;;
79005;SDS011;69202;45.498;-73.582;2023-06-10T05:38:01;3.92;;;2.40;;
79005;SDS011;69202;45.498;-73.582;2023-06-10T05:40:27;3.28;;;2.10;;
79005;SDS011;69202;45.498;-73.582;2023-06-10T05:42:53;4.13;;;2.58;;
79005;SDS011;69202;45.498;-73.582;2023-06-10T05:45:19;3.25;;;2.30;;
79005;SDS011;69202;45.498;-73.582;2023-06-10T05:47:45;3.17;;;2.63;;
79005;SDS011;69202;45.498;-73.582;2023-06-10T05:50:11;5.20;;;2.60;;
79005;SDS011;69202;45.498;-73.582;2023-06-10T05:52:37;5.22;;;2.90;;
79005;SDS011;69202;45.498;-73.582;2023-06-10T05:55:05;4.65;;;3.08;;
79005;SDS011;69202;45.498;-73.582;2023-06-10T05:57:32;5.75;;;2.60;;
79005;SDS011;69202;45.498;-73.582;2023-06-10T05:59:58;4.05;;;2.70;;
79005;SDS011;69202;45.498;-73.582;2023-06-10T06:02:24;4.85;;;2.60;;
79005;SDS011;69202;45.498;-73.582;2023-06-10T06:04:50;5.15;;;2.78;;
79005;SDS011;69202;45.498;-73.582;2023-06-10T06:07:16;4.32;;;2.80;;
79005;SDS011;69202;45.498;-73.582;2023-06-10T06:09:42;7.10;;;3.20;;
79005;SDS011;69202;45.498;-73.582;2023-06-10T06:12:08;4.90;;;3.53;;
79005;SDS011;69202;45.498;-73.582;2023-06-10T06:14:36;6.20;;;2.90;;
79005;SDS011;69202;45.498;-73.582;2023-06-10T06:17:06;4.72;;;2.80;;
79005;SDS011;69202;45.498;-73.582;2023-06-10T06:19:33;3.10;;;2.70;;
79005;SDS011;69202;45.498;-73.582;2023-06-10T06:21:59;4.20;;;2.90;;
79005;SDS011;69202;45.498;-73.582;2023-06-10T06:24:25;4.95;;;2.97;;
79005;SDS011;69202;45.498;-73.582;2023-06-10T06:26:51;5.03;;;3.30;;
79005;SDS011;69202;45.498;-73.582;2023-06-10T06:29:17;4.78;;;3.15;;
79005;SDS011;69202;45.498;-73.582;2023-06-10T06:31:43;7.40;;;3.53;;
79005;SDS011;69202;45.498;-73.582;2023-06-10T06:34:09;4.10;;;2.85;;
79005;SDS011;69202;45.498;-73.582;2023-06-10T06:36:35;5.53;;;3.47;;
79005;SDS011;69202;45.498;-73.582;2023-06-10T06:39:01;3.72;;;3.03;;
79005;SDS011;69202;45.498;-73.582;2023-06-10T06:41:27;5.80;;;3.25;;
79005;SDS011;69202;45.498;-73.582;2023-06-10T06:43:56;5.85;;;3.33;;
79005;SDS011;69202;45.498;-73.582;2023-06-10T06:46:22;4.68;;;3.55;;
79005;SDS011;69202;45.498;-73.582;2023-06-10T06:48:48;5.28;;;3.58;;
79005;SDS011;69202;45.498;-73.582;2023-06-10T06:51:14;6.53;;;3.90;;
79005;SDS011;69202;45.498;-73.582;2023-06-10T06:53:40;4.20;;;3.42;;
79005;SDS011;69202;45.498;-73.582;2023-06-10T06:56:12;5.85;;;3.80;;
79005;SDS011;69202;45.498;-73.582;2023-06-10T06:58:38;4.03;;;3.63;;
79005;SDS011;69202;45.498;-73.582;2023-06-10T07:01:04;3.95;;;3.55;;
79005;SDS011;69202;45.498;-73.582;2023-06-10T07:03:30;4.68;;;4.00;;
79005;SDS011;69202;45.498;-73.582;2023-06-10T07:05:57;5.03;;;3.65;;
79005;SDS011;69202;45.498;-73.582;2023-06-10T07:08:23;5.60;;;3.63;;
79005;SDS011;69202;45.498;-73.582;2023-06-10T07:10:48;4.38;;;3.78;;
79005;SDS011;69202;45.498;-73.582;2023-06-10T07:13:14;6.13;;;3.85;;
79005;SDS011;69202;45.498;-73.582;2023-06-10T07:15:40;4.65;;;3.70;;
79005;SDS011;69202;45.498;-73.582;2023-06-10T07:18:06;7.93;;;3.97;;
79005;SDS011;69202;45.498;-73.582;2023-06-10T07:20:32;4.30;;;3.65;;
79005;SDS011;69202;45.498;-73.582;2023-06-10T07:22:58;5.75;;;4.30;;
79005;SDS011;69202;45.498;-73.582;2023-06-10T07:25:24;5.25;;;3.88;;
79005;SDS011;69202;45.498;-73.582;2023-06-10T07:27:50;4.90;;;3.60;;
79005;SDS011;69202;45.498;-73.582;2023-06-10T07:30:16;7.07;;;3.85;;
79005;SDS011;69202;45.498;-73.582;2023-06-10T07:32:42;6.60;;;4.07;;
79005;SDS011;69202;45.498;-73.582;2023-06-10T07:35:09;5.30;;;3.95;;
79005;SDS011;69202;45.498;-73.582;2023-06-10T07:37:36;6.03;;;4.45;;
79005;SDS011;69202;45.498;-73.582;2023-06-10T07:40:03;7.45;;;3.83;;
79005;SDS011;69202;45.498;-73.582;2023-06-10T07:42:29;6.05;;;4.10;;
79005;SDS011;69202;45.498;-73.582;2023-06-10T07:44:56;7.35;;;4.00;;
79005;SDS011;69202;45.498;-73.582;2023-06-10T07:47:22;6.93;;;4.18;;
79005;SDS011;69202;45.498;-73.582;2023-06-10T07:49:48;4.63;;;3.75;;
79005;SDS011;69202;45.498;-73.582;2023-06-10T07:52:13;7.47;;;4.68;;
79005;SDS011;69202;45.498;-73.582;2023-06-10T07:54:39;5.15;;;4.25;;
79005;SDS011;69202;45.498;-73.582;2023-06-10T07:57:05;5.80;;;4.40;;
79005;SDS011;69202;45.498;-73.582;2023-06-10T07:59:35;6.50;;;4.22;;
79005;SDS011;69202;45.498;-73.582;2023-06-10T08:02:01;6.80;;;4.63;;
79005;SDS011;69202;45.498;-73.582;2023-06-10T08:04:26;6.65;;;4.18;;
79005;SDS011;69202;45.498;-73.582;2023-06-10T08:06:52;6.70;;;4.93;;
79005;SDS011;69202;45.498;-73.582;2023-06-10T08:09:18;7.32;;;4.50;;
79005;SDS011;69202;45.498;-73.582;2023-06-10T08:11:46;5.95;;;4.70;;
79005;SDS011;69202;45.498;-73.582;2023-06-10T08:14:13;5.30;;;4.30;;
79005;SDS011;69202;45.498;-73.582;2023-06-10T08:16:38;7.60;;;5.10;;
79005;SDS011;69202;45.498;-73.582;2023-06-10T08:19:04;7.20;;;4.53;;
79005;SDS011;69202;45.498;-73.582;2023-06-10T08:21:30;7.10;;;4.90;;
79005;SDS011;69202;45.498;-73.582;2023-06-10T08:23:56;9.20;;;4.32;;
79005;SDS011;69202;45.498;-73.582;2023-06-10T08:26:23;6.53;;;4.35;;
79005;SDS011;69202;45.498;-73.582;2023-06-10T08:28:49;6.75;;;4.32;;
79005;SDS011;69202;45.498;-73.582;2023-06-10T08:31:15;6.38;;;4.80;;
79005;SDS011;69202;45.498;-73.582;2023-06-10T08:33:41;7.82;;;4.55;;
79005;SDS011;69202;45.498;-73.582;2023-06-10T08:36:08;9.73;;;4.75;;
79005;SDS011;69202;45.498;-73.582;2023-06-10T08:38:33;7.60;;;5.55;;
79005;SDS011;69202;45.498;-73.582;2023-06-10T08:40:59;8.45;;;4.75;;
79005;SDS011;69202;45.498;-73.582;2023-06-10T08:43:31;8.10;;;4.70;;
79005;SDS011;69202;45.498;-73.582;2023-06-10T08:46:00;6.63;;;4.60;;
79005;SDS011;69202;45.498;-73.582;2023-06-10T08:48:28;7.57;;;4.82;;
79005;SDS011;69202;45.498;-73.582;2023-06-10T08:50:57;6.10;;;4.53;;
79005;SDS011;69202;45.498;-73.582;2023-06-10T08:53:23;10.68;;;4.70;;
79005;SDS011;69202;45.498;-73.582;2023-06-10T08:55:51;8.65;;;4.53;;
79005;SDS011;69202;45.498;-73.582;2023-06-10T08:58:18;8.15;;;4.60;;
79005;SDS011;69202;45.498;-73.582;2023-06-10T09:00:45;8.23;;;4.93;;
79005;SDS011;69202;45.498;-73.582;2023-06-10T09:03:11;9.63;;;5.18;;
79005;SDS011;69202;45.498;-73.582;2023-06-10T09:05:37;8.50;;;5.05;;
79005;SDS011;69202;45.498;-73.582;2023-06-10T09:08:04;7.20;;;5.10;;
79005;SDS011;69202;45.498;-73.582;2023-06-10T09:10:32;7.30;;;5.00;;
79005;SDS011;69202;45.498;-73.582;2023-06-10T09:12:58;11.38;;;4.93;;
79005;SDS011;69202;45.498;-73.582;2023-06-10T09:15:24;8.55;;;5.47;;
79005;SDS011;69202;45.498;-73.582;2023-06-10T09:17:50;9.45;;;5.07;;
79005;SDS011;69202;45.498;-73.582;2023-06-10T09:20:16;6.38;;;5.15;;
79005;SDS011;69202;45.498;-73.582;2023-06-10T09:22:43;8.60;;;5.18;;
79005;SDS011;69202;45.498;-73.582;2023-06-10T09:25:10;7.38;;;5.18;;
79005;SDS011;69202;45.498;-73.582;2023-06-10T09:27:51;10.15;;;5.25;;
79005;SDS011;69202;45.498;-73.582;2023-06-10T09:32:54;8.52;;;5.50;;
79005;SDS011;69202;45.498;-73.582;2023-06-10T09:35:22;8.20;;;5.20;;
79005;SDS011;69202;45.498;-73.582;2023-06-10T09:37:55;8.82;;;5.05;;
79005;SDS011;69202;45.498;-73.582;2023-06-10T09:40:25;8.95;;;5.40;;
79005;SDS011;69202;45.498;-73.582;2023-06-10T09:42:53;8.73;;;5.25;;
79005;SDS011;69202;45.498;-73.582;2023-06-10T09:45:27;7.22;;;5.43;;
79005;SDS011;69202;45.498;-73.582;2023-06-10T09:47:56;8.77;;;5.68;;
79005;SDS011;69202;45.498;-73.582;2023-06-10T09:50:22;6.65;;;5.10;;
79005;SDS011;69202;45.498;-73.582;2023-06-10T09:52:49;9.82;;;5.45;;
79005;SDS011;69202;45.498;-73.582;2023-06-10T09:55:16;10.02;;;5.47;;
79005;SDS011;69202;45.498;-73.582;2023-06-10T09:57:43;7.93;;;5.25;;
79005;SDS011;69202;45.498;-73.582;2023-06-10T10:00:13;9.77;;;5.32;;
79005;SDS011;69202;45.498;-73.582;2023-06-10T10:02:52;7.45;;;5.10;;
79005;SDS011;69202;45.498;-73.582;2023-06-10T10:05:20;9.15;;;5.72;;
79005;SDS011;69202;45.498;-73.582;2023-06-10T10:07:47;6.85;;;5.13;;
79005;SDS011;69202;45.498;-73.582;2023-06-10T10:10:14;8.70;;;5.43;;
79005;SDS011;69202;45.498;-73.582;2023-06-10T10:12:41;10.88;;;5.57;;
79005;SDS011;69202;45.498;-73.582;2023-06-10T10:15:08;12.35;;;5.93;;
79005;SDS011;69202;45.498;-73.582;2023-06-10T10:20:22;6.68;;;5.35;;
79005;SDS011;69202;45.498;-73.582;2023-06-10T10:22:52;8.88;;;5.40;;
79005;SDS011;69202;45.498;-73.582;2023-06-10T10:25:28;9.55;;;5.63;;
79005;SDS011;69202;45.498;-73.582;2023-06-10T10:30:25;9.23;;;5.57;;
79005;SDS011;69202;45.498;-73.582;2023-06-10T10:33:00;16.35;;;6.32;;
79005;SDS011;69202;45.498;-73.582;2023-06-10T10:35:33;12.60;;;5.93;;
79005;SDS011;69202;45.498;-73.582;2023-06-10T10:37:59;12.25;;;6.00;;
79005;SDS011;69202;45.498;-73.582;2023-06-10T10:40:26;9.50;;;5.47;;
79005;SDS011;69202;45.498;-73.582;2023-06-10T10:42:55;7.45;;;5.25;;
79005;SDS011;69202;45.498;-73.582;2023-06-10T10:45:22;10.32;;;5.80;;
79005;SDS011;69202;45.498;-73.582;2023-06-10T10:47:51;10.77;;;5.32;;
79005;SDS011;69202;45.498;-73.582;2023-06-10T10:50:19;11.48;;;6.07;;
79005;SDS011;69202;45.498;-73.582;2023-06-10T10:52:48;10.90;;;5.75;;
79005;SDS011;69202;45.498;-73.582;2023-06-10T10:55:20;5.78;;;4.95;;
79005;SDS011;69202;45.498;-73.582;2023-06-10T10:57:53;10.35;;;5.88;;
79005;SDS011;69202;45.498;-73.582;2023-06-10T11:00:36;13.27;;;5.95;;
79005;SDS011;69202;45.498;-73.582;2023-06-10T11:05:36;7.80;;;5.20;;
79005;SDS011;69202;45.498;-73.582;2023-06-10T11:08:06;10.02;;;6.20;;
79005;SDS011;69202;45.498;-73.582;2023-06-10T11:10:39;9.52;;;5.75;;
79005;SDS011;69202;45.498;-73.582;2023-06-10T11:15:33;9.00;;;5.90;;
79005;SDS011;69202;45.498;-73.582;2023-06-10T11:18:12;12.25;;;6.63;;
79005;SDS011;69202;45.498;-73.582;2023-06-10T11:23:25;10.60;;;6.50;;
79005;SDS011;69202;45.498;-73.582;2023-06-10T11:25:51;9.73;;;6.50;;
79005;SDS011;69202;45.498;-73.582;2023-06-10T11:28:18;12.38;;;6.72;;
79005;SDS011;69202;45.498;-73.582;2023-06-10T11:30:45;9.65;;;6.72;;
79005;SDS011;69202;45.498;-73.582;2023-06-10T11:33:16;10.88;;;6.93;;
79005;SDS011;69202;45.498;-73.582;2023-06-10T11:35:43;12.68;;;7.55;;
79005;SDS011;69202;45.498;-73.582;2023-06-10T11:38:09;10.00;;;7.30;;
79005;SDS011;69202;45.498;-73.582;2023-06-10T11:40:36;9.32;;;6.65;;
79005;SDS011;69202;45.498;-73.582;2023-06-10T11:43:03;10.45;;;7.18;;
79005;SDS011;69202;45.498;-73.582;2023-06-10T11:45:30;9.75;;;7.32;;
79005;SDS011;69202;45.498;-73.582;2023-06-10T11:47:57;12.98;;;7.30;;
79005;SDS011;69202;45.498;-73.582;2023-06-10T11:50:28;13.38;;;7.63;;
79005;SDS011;69202;45.498;-73.582;2023-06-10T11:52:57;13.52;;;8.52;;
79005;SDS011;69202;45.498;-73.582;2023-06-10T11:58:12;14.48;;;8.07;;
79005;SDS011;69202;45.498;-73.582;2023-06-10T12:00:49;9.23;;;7.85;;
79005;SDS011;69202;45.498;-73.582;2023-06-10T12:03:18;11.43;;;8.98;;
79005;SDS011;69202;45.498;-73.582;2023-06-10T12:05:58;12.20;;;7.82;;
79005;SDS011;69202;45.498;-73.582;2023-06-10T12:08:25;10.23;;;7.25;;
79005;SDS011;69202;45.498;-73.582;2023-06-10T12:10:52;13.52;;;9.07;;
79005;SDS011;69202;45.498;-73.582;2023-06-10T12:13:18;13.80;;;8.40;;
79005;SDS011;69202;45.498;-73.582;2023-06-10T12:15:45;10.75;;;8.15;;
79005;SDS011;69202;45.498;-73.582;2023-06-10T12:18:18;12.38;;;8.35;;
79005;SDS011;69202;45.498;-73.582;2023-06-10T12:20:48;11.52;;;8.07;;
79005;SDS011;69202;45.498;-73.582;2023-06-10T12:23:15;10.10;;;8.30;;
79005;SDS011;69202;45.498;-73.582;2023-06-10T12:25:52;10.60;;;8.90;;
79005;SDS011;69202;45.498;-73.582;2023-06-10T12:28:22;12.25;;;8.45;;
79005;SDS011;69202;45.498;-73.582;2023-06-10T12:30:50;13.90;;;8.77;;
79005;SDS011;69202;45.498;-73.582;2023-06-10T12:33:16;12.57;;;8.27;;
79005;SDS011;69202;45.498;-73.582;2023-06-10T12:35:51;11.02;;;9.15;;
79005;SDS011;69202;45.498;-73.582;2023-06-10T12:38:21;12.75;;;8.55;;
79005;SDS011;69202;45.498;-73.582;2023-06-10T12:40:49;11.93;;;8.27;;
79005;SDS011;69202;45.498;-73.582;2023-06-10T12:43:22;12.55;;;8.25;;
79005;SDS011;69202;45.498;-73.582;2023-06-10T12:45:49;10.05;;;8.13;;
79005;SDS011;69202;45.498;-73.582;2023-06-10T12:50:51;12.07;;;8.27;;
79005;SDS011;69202;45.498;-73.582;2023-06-10T12:53:21;14.35;;;8.20;;
79005;SDS011;69202;45.498;-73.582;2023-06-10T12:55:48;13.20;;;7.25;;
79005;SDS011;69202;45.498;-73.582;2023-06-10T12:58:15;11.77;;;8.40;;
79005;SDS011;69202;45.498;-73.582;2023-06-10T13:00:41;13.80;;;8.10;;
79005;SDS011;69202;45.498;-73.582;2023-06-10T13:03:07;12.45;;;6.93;;
79005;SDS011;69202;45.498;-73.582;2023-06-10T13:05:37;11.48;;;7.53;;
79005;SDS011;69202;45.498;-73.582;2023-06-10T13:08:04;10.43;;;7.65;;
79005;SDS011;69202;45.498;-73.582;2023-06-10T13:10:50;10.30;;;7.75;;
79005;SDS011;69202;45.498;-73.582;2023-06-10T13:13:15;10.57;;;7.22;;
79005;SDS011;69202;45.498;-73.582;2023-06-10T13:15:42;9.32;;;7.05;;
79005;SDS011;69202;45.498;-73.582;2023-06-10T13:18:08;11.20;;;7.60;;
79005;SDS011;69202;45.498;-73.582;2023-06-10T13:20:34;10.07;;;6.95;;
79005;SDS011;69202;45.498;-73.582;2023-06-10T13:23:01;10.75;;;6.93;;
79005;SDS011;69202;45.498;-73.582;2023-06-10T13:25:27;12.02;;;7.50;;
79005;SDS011;69202;45.498;-73.582;2023-06-10T13:27:54;10.32;;;7.10;;
79005;SDS011;69202;45.498;-73.582;2023-06-10T13:30:20;10.88;;;6.80;;
79005;SDS011;69202;45.498;-73.582;2023-06-10T13:32:46;8.00;;;6.45;;
79005;SDS011;69202;45.498;-73.582;2023-06-10T13:35:12;7.47;;;6.05;;
79005;SDS011;69202;45.498;-73.582;2023-06-10T13:37:41;11.45;;;6.32;;
79005;SDS011;69202;45.498;-73.582;2023-06-10T13:40:07;9.18;;;6.40;;
79005;SDS011;69202;45.498;-73.582;2023-06-10T13:42:35;10.48;;;6.30;;
79005;SDS011;69202;45.498;-73.582;2023-06-10T13:45:02;8.10;;;5.90;;
79005;SDS011;69202;45.498;-73.582;2023-06-10T13:47:31;8.15;;;6.50;;
79005;SDS011;69202;45.498;-73.582;2023-06-10T13:49:57;11.57;;;6.30;;
79005;SDS011;69202;45.498;-73.582;2023-06-10T13:52:23;9.30;;;6.10;;
79005;SDS011;69202;45.498;-73.582;2023-06-10T13:54:49;8.80;;;5.90;;
79005;SDS011;69202;45.498;-73.582;2023-06-10T13:57:15;7.85;;;5.43;;
79005;SDS011;69202;45.498;-73.582;2023-06-10T13:59:41;7.50;;;5.10;;
79005;SDS011;69202;45.498;-73.582;2023-06-10T14:02:06;7.20;;;5.28;;
79005;SDS011;69202;45.498;-73.582;2023-06-10T14:04:32;7.55;;;5.13;;
79005;SDS011;69202;45.498;-73.582;2023-06-10T14:06:58;9.50;;;4.85;;
79005;SDS011;69202;45.498;-73.582;2023-06-10T14:09:24;8.60;;;5.95;;
79005;SDS011;69202;45.498;-73.582;2023-06-10T14:11:50;7.10;;;4.72;;
79005;SDS011;69202;45.498;-73.582;2023-06-10T14:14:17;10.80;;;4.82;;
79005;SDS011;69202;45.498;-73.582;2023-06-10T14:16:44;7.43;;;4.88;;
79005;SDS011;69202;45.498;-73.582;2023-06-10T14:19:10;8.73;;;5.00;;
79005;SDS011;69202;45.498;-73.582;2023-06-10T14:21:36;10.98;;;5.40;;
79005;SDS011;69202;45.498;-73.582;2023-06-10T14:24:01;5.55;;;4.82;;
79005;SDS011;69202;45.498;-73.582;2023-06-10T14:26:27;7.50;;;4.95;;
79005;SDS011;69202;45.498;-73.582;2023-06-10T14:28:53;7.20;;;4.38;;
79005;SDS011;69202;45.498;-73.582;2023-06-10T14:31:19;6.55;;;4.38;;
79005;SDS011;69202;45.498;-73.582;2023-06-10T14:33:45;7.82;;;4.57;;
79005;SDS011;69202;45.498;-73.582;2023-06-10T14:36:11;9.05;;;4.70;;
79005;SDS011;69202;45.498;-73.582;2023-06-10T14:38:37;7.40;;;4.15;;
79005;SDS011;69202;45.498;-73.582;2023-06-10T14:41:03;6.28;;;4.38;;
79005;SDS011;69202;45.498;-73.582;2023-06-10T14:43:29;8.35;;;3.90;;
79005;SDS011;69202;45.498;-73.582;2023-06-10T14:45:54;4.90;;;3.40;;